sensor_id;sensor_type;location;lat;lon;timestamp;P1;durP1;ratioP1;P2;durP2;ratioP2
37425;SDS011;23285;50.180;7.036;2023-03-01T00:02:13;11.80;;;9.27;;
37425;SDS011;23285;50.180;7.036;2023-03-01T00:04:59;15.73;;;9.83;;
37425;SDS011;23285;50.180;7.036;2023-03-01T00:07:45;13.90;;;8.93;;
37425;SDS011;23285;50.180;7.036;2023-03-01T00:10:31;10.00;;;8.93;;
37425;SDS011;23285;50.180;7.036;2023-03-01T00:13:17;13.93;;;9.27;;
37425;SDS011;23285;50.180;7.036;2023-03-01T00:16:04;12.43;;;9.00;;
37425;SDS011;23285;50.180;7.036;2023-03-01T00:18:53;11.27;;;9.07;;
37425;SDS011;23285;50.180;7.036;2023-03-01T00:21:39;12.60;;;9.47;;
37425;SDS011;23285;50.180;7.036;2023-03-01T00:24:26;12.00;;;9.20;;
37425;SDS011;23285;50.180;7.036;2023-03-01T00:27:12;10.60;;;9.27;;
37425;SDS011;23285;50.180;7.036;2023-03-01T00:29:58;11.60;;;9.30;;
37425;SDS011;23285;50.180;7.036;2023-03-01T00:32:44;12.53;;;9.47;;
37425;SDS011;23285;50.180;7.036;2023-03-01T00:35:33;10.77;;;9.57;;
37425;SDS011;23285;50.180;7.036;2023-03-01T00:38:19;11.53;;;9.40;;
37425;SDS011;23285;50.180;7.036;2023-03-01T00:41:07;11.13;;;8.80;;
37425;SDS011;23285;50.180;7.036;2023-03-01T00:43:55;12.73;;;9.33;;
37425;SDS011;23285;50.180;7.036;2023-03-01T00:46:41;13.77;;;8.93;;
37425;SDS011;23285;50.180;7.036;2023-03-01T00:49:28;13.43;;;9.93;;
37425;SDS011;23285;50.180;7.036;2023-03-01T00:52:16;11.00;;;9.23;;
37425;SDS011;23285;50.180;7.036;2023-03-01T00:55:02;11.90;;;9.23;;
37425;SDS011;23285;50.180;7.036;2023-03-01T00:57:49;12.10;;;9.33;;
37425;SDS011;23285;50.180;7.036;2023-03-01T01:00:35;15.10;;;10.27;;
37425;SDS011;23285;50.180;7.036;2023-03-01T01:03:21;12.57;;;9.40;;
37425;SDS011;23285;50.180;7.036;2023-03-01T01:06:12;13.13;;;10.43;;
37425;SDS011;23285;50.180;7.036;2023-03-01T01:09:01;12.17;;;10.00;;
37425;SDS011;23285;50.180;7.036;2023-03-01T01:11:49;14.63;;;10.90;;
37425;SDS011;23285;50.180;7.036;2023-03-01T01:14:37;11.73;;;9.70;;
37425;SDS011;23285;50.180;7.036;2023-03-01T01:17:23;12.40;;;10.03;;
37425;SDS011;23285;50.180;7.036;2023-03-01T01:20:10;11.97;;;10.13;;
37425;SDS011;23285;50.180;7.036;2023-03-01T01:22:57;13.13;;;9.83;;
37425;SDS011;23285;50.180;7.036;2023-03-01T01:25:44;17.27;;;10.23;;
37425;SDS011;23285;50.180;7.036;2023-03-01T01:28:31;13.00;;;10.30;;
37425;SDS011;23285;50.180;7.036;2023-03-01T01:31:17;12.93;;;9.97;;
37425;SDS011;23285;50.180;7.036;2023-03-01T01:34:05;13.33;;;9.67;;
37425;SDS011;23285;50.180;7.036;2023-03-01T01:36:53;11.97;;;9.80;;
37425;SDS011;23285;50.180;7.036;2023-03-01T01:39:39;12.20;;;9.67;;
37425;SDS011;23285;50.180;7.036;2023-03-01T01:42:27;12.77;;;9.77;;
37425;SDS011;23285;50.180;7.036;2023-03-01T01:48:21;12.73;;;9.87;;
37425;SDS011;23285;50.180;7.036;2023-03-01T01:51:11;11.17;;;9.97;;
37425;SDS011;23285;50.180;7.036;2023-03-01T01:54:02;11.83;;;10.47;;
37425;SDS011;23285;50.180;7.036;2023-03-01T01:56:52;13.13;;;9.80;;
37425;SDS011;23285;50.180;7.036;2023-03-01T01:59:43;11.27;;;9.53;;
37425;SDS011;23285;50.180;7.036;2023-03-01T02:02:35;11.07;;;9.80;;
37425;SDS011;23285;50.180;7.036;2023-03-01T02:05:24;11.43;;;9.73;;
37425;SDS011;23285;50.180;7.036;2023-03-01T02:08:18;13.90;;;10.13;;
37425;SDS011;23285;50.180;7.036;2023-03-01T02:11:06;15.10;;;12.40;;
37425;SDS011;23285;50.180;7.036;2023-03-01T02:13:53;15.07;;;11.17;;
37425;SDS011;23285;50.180;7.036;2023-03-01T02:16:41;13.30;;;11.23;;
37425;SDS011;23285;50.180;7.036;2023-03-01T02:19:32;13.10;;;10.20;;
37425;SDS011;23285;50.180;7.036;2023-03-01T02:22:22;14.20;;;10.87;;
37425;SDS011;23285;50.180;7.036;2023-03-01T02:25:12;12.87;;;10.93;;
37425;SDS011;23285;50.180;7.036;2023-03-01T02:28:23;14.53;;;11.63;;
37425;SDS011;23285;50.180;7.036;2023-03-01T02:31:14;13.63;;;10.30;;
37425;SDS011;23285;50.180;7.036;2023-03-01T02:34:21;15.03;;;11.43;;
37425;SDS011;23285;50.180;7.036;2023-03-01T02:37:13;16.57;;;11.70;;
37425;SDS011;23285;50.180;7.036;2023-03-01T02:40:05;14.93;;;11.30;;
37425;SDS011;23285;50.180;7.036;2023-03-01T02:42:57;14.13;;;11.13;;
37425;SDS011;23285;50.180;7.036;2023-03-01T02:45:49;14.07;;;11.10;;
37425;SDS011;23285;50.180;7.036;2023-03-01T02:48:40;15.87;;;11.40;;
37425;SDS011;23285;50.180;7.036;2023-03-01T02:51:33;14.03;;;11.97;;
37425;SDS011;23285;50.180;7.036;2023-03-01T02:54:31;18.03;;;12.30;;
37425;SDS011;23285;50.180;7.036;2023-03-01T02:57:24;14.53;;;11.60;;
37425;SDS011;23285;50.180;7.036;2023-03-01T03:00:13;19.50;;;12.23;;
37425;SDS011;23285;50.180;7.036;2023-03-01T03:03:06;18.20;;;13.30;;
37425;SDS011;23285;50.180;7.036;2023-03-01T03:05:53;17.77;;;12.20;;
37425;SDS011;23285;50.180;7.036;2023-03-01T03:08:40;15.87;;;12.07;;
37425;SDS011;23285;50.180;7.036;2023-03-01T03:11:28;16.23;;;12.60;;
37425;SDS011;23285;50.180;7.036;2023-03-01T03:14:16;16.70;;;11.70;;
37425;SDS011;23285;50.180;7.036;2023-03-01T03:17:05;14.67;;;12.37;;
37425;SDS011;23285;50.180;7.036;2023-03-01T03:19:53;15.37;;;12.13;;
37425;SDS011;23285;50.180;7.036;2023-03-01T03:22:39;14.70;;;11.87;;
37425;SDS011;23285;50.180;7.036;2023-03-01T03:25:26;19.67;;;12.97;;
37425;SDS011;23285;50.180;7.036;2023-03-01T03:28:13;17.10;;;12.37;;
37425;SDS011;23285;50.180;7.036;2023-03-01T03:31:00;15.60;;;12.13;;
37425;SDS011;23285;50.180;7.036;2023-03-01T03:33:48;17.33;;;13.20;;
37425;SDS011;23285;50.180;7.036;2023-03-01T03:36:35;17.13;;;12.53;;
37425;SDS011;23285;50.180;7.036;2023-03-01T03:39:22;20.77;;;13.83;;
37425;SDS011;23285;50.180;7.036;2023-03-01T03:42:08;16.60;;;12.83;;
37425;SDS011;23285;50.180;7.036;2023-03-01T03:44:55;16.07;;;12.57;;
37425;SDS011;23285;50.180;7.036;2023-03-01T03:47:41;18.47;;;13.23;;
37425;SDS011;23285;50.180;7.036;2023-03-01T03:50:28;17.40;;;12.10;;
37425;SDS011;23285;50.180;7.036;2023-03-01T03:53:16;15.70;;;12.53;;
37425;SDS011;23285;50.180;7.036;2023-03-01T03:56:03;16.17;;;12.90;;
37425;SDS011;23285;50.180;7.036;2023-03-01T03:58:50;16.40;;;13.67;;
37425;SDS011;23285;50.180;7.036;2023-03-01T04:01:36;18.00;;;13.93;;
37425;SDS011;23285;50.180;7.036;2023-03-01T04:04:23;18.10;;;12.90;;
37425;SDS011;23285;50.180;7.036;2023-03-01T04:07:09;20.67;;;14.33;;
37425;SDS011;23285;50.180;7.036;2023-03-01T04:09:57;16.37;;;13.47;;
37425;SDS011;23285;50.180;7.036;2023-03-01T04:12:43;17.43;;;13.57;;
37425;SDS011;23285;50.180;7.036;2023-03-01T04:15:30;19.43;;;14.50;;
37425;SDS011;23285;50.180;7.036;2023-03-01T04:18:17;18.93;;;15.27;;
37425;SDS011;23285;50.180;7.036;2023-03-01T04:21:05;18.50;;;13.90;;
37425;SDS011;23285;50.180;7.036;2023-03-01T04:23:52;20.27;;;14.37;;
37425;SDS011;23285;50.180;7.036;2023-03-01T04:26:39;18.27;;;13.33;;
37425;SDS011;23285;50.180;7.036;2023-03-01T04:29:26;18.97;;;14.03;;
37425;SDS011;23285;50.180;7.036;2023-03-01T04:32:12;19.97;;;14.27;;
37425;SDS011;23285;50.180;7.036;2023-03-01T04:35:00;19.97;;;13.63;;
37425;SDS011;23285;50.180;7.036;2023-03-01T04:37:46;18.37;;;14.07;;
37425;SDS011;23285;50.180;7.036;2023-03-01T04:40:33;19.73;;;14.07;;
37425;SDS011;23285;50.180;7.036;2023-03-01T04:43:21;17.30;;;13.77;;
37425;SDS011;23285;50.180;7.036;2023-03-01T04:46:08;19.67;;;14.77;;
37425;SDS011;23285;50.180;7.036;2023-03-01T04:48:56;18.43;;;14.57;;
37425;SDS011;23285;50.180;7.036;2023-03-01T04:51:42;17.60;;;14.43;;
37425;SDS011;23285;50.180;7.036;2023-03-01T04:54:28;19.47;;;14.73;;
37425;SDS011;23285;50.180;7.036;2023-03-01T04:57:15;20.90;;;16.10;;
37425;SDS011;23285;50.180;7.036;2023-03-01T05:00:04;21.10;;;15.70;;
37425;SDS011;23285;50.180;7.036;2023-03-01T05:03:04;20.00;;;15.53;;
37425;SDS011;23285;50.180;7.036;2023-03-01T05:05:51;19.80;;;15.30;;
37425;SDS011;23285;50.180;7.036;2023-03-01T05:08:39;19.70;;;15.17;;
37425;SDS011;23285;50.180;7.036;2023-03-01T05:11:26;20.70;;;15.70;;
37425;SDS011;23285;50.180;7.036;2023-03-01T05:14:17;22.73;;;17.10;;
37425;SDS011;23285;50.180;7.036;2023-03-01T05:17:05;20.80;;;14.60;;
37425;SDS011;23285;50.180;7.036;2023-03-01T05:19:51;21.30;;;16.73;;
37425;SDS011;23285;50.180;7.036;2023-03-01T05:22:40;20.03;;;15.77;;
37425;SDS011;23285;50.180;7.036;2023-03-01T05:25:26;19.90;;;15.17;;
37425;SDS011;23285;50.180;7.036;2023-03-01T05:28:17;22.40;;;15.20;;
37425;SDS011;23285;50.180;7.036;2023-03-01T05:31:04;23.03;;;17.07;;
37425;SDS011;23285;50.180;7.036;2023-03-01T05:33:55;26.27;;;17.63;;
37425;SDS011;23285;50.180;7.036;2023-03-01T05:36:41;23.00;;;15.47;;
37425;SDS011;23285;50.180;7.036;2023-03-01T05:39:28;17.60;;;14.47;;
37425;SDS011;23285;50.180;7.036;2023-03-01T05:42:16;19.70;;;16.37;;
37425;SDS011;23285;50.180;7.036;2023-03-01T05:45:02;19.93;;;15.43;;
37425;SDS011;23285;50.180;7.036;2023-03-01T05:47:53;21.20;;;16.80;;
37425;SDS011;23285;50.180;7.036;2023-03-01T05:50:42;24.87;;;16.40;;
37425;SDS011;23285;50.180;7.036;2023-03-01T05:53:30;22.03;;;16.50;;
37425;SDS011;23285;50.180;7.036;2023-03-01T05:56:16;20.97;;;16.27;;
37425;SDS011;23285;50.180;7.036;2023-03-01T05:59:03;23.10;;;15.87;;
37425;SDS011;23285;50.180;7.036;2023-03-01T06:01:50;22.87;;;16.63;;
37425;SDS011;23285;50.180;7.036;2023-03-01T06:04:37;24.50;;;17.17;;
37425;SDS011;23285;50.180;7.036;2023-03-01T06:07:26;25.60;;;16.17;;
37425;SDS011;23285;50.180;7.036;2023-03-01T06:10:13;23.03;;;16.10;;
37425;SDS011;23285;50.180;7.036;2023-03-01T06:13:00;22.40;;;16.50;;
37425;SDS011;23285;50.180;7.036;2023-03-01T06:15:46;23.27;;;17.27;;
37425;SDS011;23285;50.180;7.036;2023-03-01T06:18:32;22.83;;;15.87;;
37425;SDS011;23285;50.180;7.036;2023-03-01T06:21:18;32.30;;;24.17;;
37425;SDS011;23285;50.180;7.036;2023-03-01T06:24:06;33.07;;;23.43;;
37425;SDS011;23285;50.180;7.036;2023-03-01T06:26:53;42.13;;;25.97;;
37425;SDS011;23285;50.180;7.036;2023-03-01T06:29:40;52.53;;;30.27;;
37425;SDS011;23285;50.180;7.036;2023-03-01T06:32:26;42.70;;;27.07;;
37425;SDS011;23285;50.180;7.036;2023-03-01T06:35:13;41.80;;;26.50;;
37425;SDS011;23285;50.180;7.036;2023-03-01T06:38:02;48.03;;;29.20;;
37425;SDS011;23285;50.180;7.036;2023-03-01T06:40:52;47.40;;;28.87;;
37425;SDS011;23285;50.180;7.036;2023-03-01T06:43:40;68.07;;;40.93;;
37425;SDS011;23285;50.180;7.036;2023-03-01T06:46:27;46.83;;;32.00;;
37425;SDS011;23285;50.180;7.036;2023-03-01T06:49:13;34.67;;;24.50;;
37425;SDS011;23285;50.180;7.036;2023-03-01T06:52:00;30.57;;;22.50;;
37425;SDS011;23285;50.180;7.036;2023-03-01T06:54:46;26.77;;;19.47;;
37425;SDS011;23285;50.180;7.036;2023-03-01T06:57:34;28.00;;;20.07;;
37425;SDS011;23285;50.180;7.036;2023-03-01T07:00:21;26.17;;;20.97;;
37425;SDS011;23285;50.180;7.036;2023-03-01T07:03:07;23.07;;;18.43;;
37425;SDS011;23285;50.180;7.036;2023-03-01T07:05:54;23.47;;;17.33;;
37425;SDS011;23285;50.180;7.036;2023-03-01T07:08:41;25.53;;;18.27;;
37425;SDS011;23285;50.180;7.036;2023-03-01T07:11:27;22.67;;;18.13;;
37425;SDS011;23285;50.180;7.036;2023-03-01T07:14:15;25.63;;;17.30;;
37425;SDS011;23285;50.180;7.036;2023-03-01T07:17:01;21.33;;;16.50;;
37425;SDS011;23285;50.180;7.036;2023-03-01T07:19:48;25.43;;;17.37;;
37425;SDS011;23285;50.180;7.036;2023-03-01T07:22:34;21.93;;;16.90;;
37425;SDS011;23285;50.180;7.036;2023-03-01T07:25:22;22.43;;;16.80;;
37425;SDS011;23285;50.180;7.036;2023-03-01T07:28:08;23.00;;;16.53;;
37425;SDS011;23285;50.180;7.036;2023-03-01T07:30:58;23.40;;;16.37;;
37425;SDS011;23285;50.180;7.036;2023-03-01T07:33:46;26.50;;;17.67;;
37425;SDS011;23285;50.180;7.036;2023-03-01T07:36:33;23.17;;;16.87;;
37425;SDS011;23285;50.180;7.036;2023-03-01T07:39:19;24.83;;;16.90;;
37425;SDS011;23285;50.180;7.036;2023-03-01T07:42:07;20.73;;;15.80;;
37425;SDS011;23285;50.180;7.036;2023-03-01T07:44:53;24.07;;;16.57;;
37425;SDS011;23285;50.180;7.036;2023-03-01T07:47:41;21.13;;;16.60;;
37425;SDS011;23285;50.180;7.036;2023-03-01T07:50:27;22.53;;;16.37;;
37425;SDS011;23285;50.180;7.036;2023-03-01T07:53:13;21.70;;;17.27;;
37425;SDS011;23285;50.180;7.036;2023-03-01T07:56:01;21.00;;;15.60;;
37425;SDS011;23285;50.180;7.036;2023-03-01T07:58:48;21.57;;;15.73;;
37425;SDS011;23285;50.180;7.036;2023-03-01T08:01:35;20.67;;;16.30;;
37425;SDS011;23285;50.180;7.036;2023-03-01T08:04:22;20.97;;;15.30;;
37425;SDS011;23285;50.180;7.036;2023-03-01T08:07:09;21.63;;;15.90;;
37425;SDS011;23285;50.180;7.036;2023-03-01T08:09:55;23.90;;;16.30;;
37425;SDS011;23285;50.180;7.036;2023-03-01T08:12:41;25.97;;;16.50;;
37425;SDS011;23285;50.180;7.036;2023-03-01T08:15:28;20.50;;;15.63;;
37425;SDS011;23285;50.180;7.036;2023-03-01T08:18:15;20.10;;;15.33;;
37425;SDS011;23285;50.180;7.036;2023-03-01T08:21:03;22.43;;;16.07;;
37425;SDS011;23285;50.180;7.036;2023-03-01T08:23:51;22.97;;;15.87;;
37425;SDS011;23285;50.180;7.036;2023-03-01T08:26:38;18.97;;;15.80;;
37425;SDS011;23285;50.180;7.036;2023-03-01T08:29:25;19.80;;;15.63;;
37425;SDS011;23285;50.180;7.036;2023-03-01T08:32:11;21.20;;;16.47;;
37425;SDS011;23285;50.180;7.036;2023-03-01T08:34:57;18.97;;;14.23;;
37425;SDS011;23285;50.180;7.036;2023-03-01T08:37:45;22.87;;;15.00;;
37425;SDS011;23285;50.180;7.036;2023-03-01T08:40:31;26.57;;;18.03;;
37425;SDS011;23285;50.180;7.036;2023-03-01T08:43:18;20.73;;;15.50;;
37425;SDS011;23285;50.180;7.036;2023-03-01T08:46:04;22.83;;;15.73;;
37425;SDS011;23285;50.180;7.036;2023-03-01T08:48:50;17.20;;;14.13;;
37425;SDS011;23285;50.180;7.036;2023-03-01T08:51:36;22.83;;;15.20;;
37425;SDS011;23285;50.180;7.036;2023-03-01T08:54:24;23.47;;;15.60;;
37425;SDS011;23285;50.180;7.036;2023-03-01T08:57:10;21.90;;;15.73;;
37425;SDS011;23285;50.180;7.036;2023-03-01T08:59:57;27.43;;;15.07;;
37425;SDS011;23285;50.180;7.036;2023-03-01T09:02:43;24.50;;;16.57;;
37425;SDS011;23285;50.180;7.036;2023-03-01T09:05:30;23.83;;;16.67;;
37425;SDS011;23285;50.180;7.036;2023-03-01T09:08:17;23.93;;;16.07;;
37425;SDS011;23285;50.180;7.036;2023-03-01T09:11:06;20.37;;;15.73;;
37425;SDS011;23285;50.180;7.036;2023-03-01T09:13:55;24.13;;;16.40;;
37425;SDS011;23285;50.180;7.036;2023-03-01T09:16:41;23.17;;;15.70;;
37425;SDS011;23285;50.180;7.036;2023-03-01T09:19:28;20.00;;;16.20;;
37425;SDS011;23285;50.180;7.036;2023-03-01T09:22:14;21.33;;;14.93;;
37425;SDS011;23285;50.180;7.036;2023-03-01T09:25:00;21.30;;;15.13;;
37425;SDS011;23285;50.180;7.036;2023-03-01T09:27:49;24.40;;;15.10;;
37425;SDS011;23285;50.180;7.036;2023-03-01T09:30:36;24.23;;;16.07;;
37425;SDS011;23285;50.180;7.036;2023-03-01T09:33:23;21.23;;;15.93;;
37425;SDS011;23285;50.180;7.036;2023-03-01T09:36:10;19.80;;;15.13;;
37425;SDS011;23285;50.180;7.036;2023-03-01T09:38:58;21.70;;;14.97;;
37425;SDS011;23285;50.180;7.036;2023-03-01T09:41:49;24.13;;;15.67;;
37425;SDS011;23285;50.180;7.036;2023-03-01T09:44:42;19.53;;;15.60;;
37425;SDS011;23285;50.180;7.036;2023-03-01T09:47:34;24.40;;;15.67;;
37425;SDS011;23285;50.180;7.036;2023-03-01T09:50:20;21.10;;;15.13;;
37425;SDS011;23285;50.180;7.036;2023-03-01T09:53:09;22.77;;;15.37;;
37425;SDS011;23285;50.180;7.036;2023-03-01T09:56:01;20.47;;;14.87;;
37425;SDS011;23285;50.180;7.036;2023-03-01T09:58:52;22.63;;;15.73;;
37425;SDS011;23285;50.180;7.036;2023-03-01T10:01:50;22.70;;;15.83;;
37425;SDS011;23285;50.180;7.036;2023-03-01T10:04:42;18.70;;;15.23;;
37425;SDS011;23285;50.180;7.036;2023-03-01T10:07:35;24.60;;;18.30;;
37425;SDS011;23285;50.180;7.036;2023-03-01T10:10:28;34.50;;;23.20;;
37425;SDS011;23285;50.180;7.036;2023-03-01T10:13:21;34.63;;;23.67;;
37425;SDS011;23285;50.180;7.036;2023-03-01T10:16:13;19.23;;;16.40;;
37425;SDS011;23285;50.180;7.036;2023-03-01T10:19:04;22.27;;;16.27;;
37425;SDS011;23285;50.180;7.036;2023-03-01T10:21:51;21.77;;;16.03;;
37425;SDS011;23285;50.180;7.036;2023-03-01T10:24:38;20.17;;;16.37;;
37425;SDS011;23285;50.180;7.036;2023-03-01T10:27:25;20.23;;;15.30;;
37425;SDS011;23285;50.180;7.036;2023-03-01T10:30:19;19.83;;;15.30;;
37425;SDS011;23285;50.180;7.036;2023-03-01T10:33:08;20.97;;;15.53;;
37425;SDS011;23285;50.180;7.036;2023-03-01T10:36:04;17.97;;;14.90;;
37425;SDS011;23285;50.180;7.036;2023-03-01T10:38:52;17.10;;;14.67;;
37425;SDS011;23285;50.180;7.036;2023-03-01T10:41:52;22.20;;;16.50;;
37425;SDS011;23285;50.180;7.036;2023-03-01T10:44:42;22.97;;;15.80;;
37425;SDS011;23285;50.180;7.036;2023-03-01T10:47:30;20.63;;;15.63;;
37425;SDS011;23285;50.180;7.036;2023-03-01T10:50:19;19.20;;;15.53;;
37425;SDS011;23285;50.180;7.036;2023-03-01T10:53:19;22.83;;;16.13;;
37425;SDS011;23285;50.180;7.036;2023-03-01T10:56:09;19.83;;;15.33;;
37425;SDS011;23285;50.180;7.036;2023-03-01T10:58:58;23.43;;;16.87;;
37425;SDS011;23285;50.180;7.036;2023-03-01T11:01:46;23.33;;;15.73;;
37425;SDS011;23285;50.180;7.036;2023-03-01T11:04:59;20.90;;;16.13;;
37425;SDS011;23285;50.180;7.036;2023-03-01T11:07:48;22.23;;;16.53;;
37425;SDS011;23285;50.180;7.036;2023-03-01T11:10:37;21.50;;;15.77;;
37425;SDS011;23285;50.180;7.036;2023-03-01T11:13:24;22.00;;;16.03;;
37425;SDS011;23285;50.180;7.036;2023-03-01T11:16:10;19.77;;;15.13;;
37425;SDS011;23285;50.180;7.036;2023-03-01T11:18:59;17.70;;;15.80;;
37425;SDS011;23285;50.180;7.036;2023-03-01T11:21:52;21.53;;;16.20;;
37425;SDS011;23285;50.180;7.036;2023-03-01T11:24:43;20.43;;;16.50;;
37425;SDS011;23285;50.180;7.036;2023-03-01T11:27:33;19.83;;;15.83;;
37425;SDS011;23285;50.180;7.036;2023-03-01T11:30:24;19.70;;;16.33;;
37425;SDS011;23285;50.180;7.036;2023-03-01T11:33:17;21.97;;;16.50;;
37425;SDS011;23285;50.180;7.036;2023-03-01T11:36:13;23.00;;;16.70;;
37425;SDS011;23285;50.180;7.036;2023-03-01T11:39:03;22.17;;;15.73;;
37425;SDS011;23285;50.180;7.036;2023-03-01T11:41:58;21.43;;;16.17;;
37425;SDS011;23285;50.180;7.036;2023-03-01T11:44:54;18.33;;;16.33;;
37425;SDS011;23285;50.180;7.036;2023-03-01T11:47:50;23.17;;;16.40;;
37425;SDS011;23285;50.180;7.036;2023-03-01T11:50:46;20.43;;;16.67;;
37425;SDS011;23285;50.180;7.036;2023-03-01T11:53:43;20.87;;;16.97;;
37425;SDS011;23285;50.180;7.036;2023-03-01T11:56:34;22.53;;;17.37;;
37425;SDS011;23285;50.180;7.036;2023-03-01T12:09:36;30.70;;;20.30;;
37425;SDS011;23285;50.180;7.036;2023-03-01T12:12:32;31.10;;;23.27;;
37425;SDS011;23285;50.180;7.036;2023-03-01T12:22:10;46.33;;;31.07;;
37425;SDS011;23285;50.180;7.036;2023-03-01T12:25:24;31.27;;;21.33;;
37425;SDS011;23285;50.180;7.036;2023-03-01T12:28:20;53.97;;;36.17;;
37425;SDS011;23285;50.180;7.036;2023-03-01T12:31:33;32.00;;;23.20;;
37425;SDS011;23285;50.180;7.036;2023-03-01T12:34:53;20.27;;;16.33;;
37425;SDS011;23285;50.180;7.036;2023-03-01T12:37:54;18.77;;;15.50;;
37425;SDS011;23285;50.180;7.036;2023-03-01T12:40:45;22.60;;;16.93;;
37425;SDS011;23285;50.180;7.036;2023-03-01T12:43:55;20.47;;;15.73;;
37425;SDS011;23285;50.180;7.036;2023-03-01T12:46:51;16.90;;;14.33;;
37425;SDS011;23285;50.180;7.036;2023-03-01T12:49:48;20.33;;;15.30;;
37425;SDS011;23285;50.180;7.036;2023-03-01T12:52:40;18.47;;;15.10;;
37425;SDS011;23285;50.180;7.036;2023-03-01T12:55:31;16.47;;;13.77;;
37425;SDS011;23285;50.180;7.036;2023-03-01T12:58:24;17.27;;;14.00;;
37425;SDS011;23285;50.180;7.036;2023-03-01T13:01:14;21.27;;;14.27;;
37425;SDS011;23285;50.180;7.036;2023-03-01T13:04:12;20.77;;;14.90;;
37425;SDS011;23285;50.180;7.036;2023-03-01T13:07:13;19.03;;;15.30;;
37425;SDS011;23285;50.180;7.036;2023-03-01T13:10:11;17.23;;;14.03;;
37425;SDS011;23285;50.180;7.036;2023-03-01T13:13:07;18.43;;;14.27;;
37425;SDS011;23285;50.180;7.036;2023-03-01T13:16:20;16.20;;;13.77;;
37425;SDS011;23285;50.180;7.036;2023-03-01T13:19:10;17.93;;;13.97;;
37425;SDS011;23285;50.180;7.036;2023-03-01T13:21:59;18.20;;;14.90;;
37425;SDS011;23285;50.180;7.036;2023-03-01T13:25:15;16.77;;;13.17;;
37425;SDS011;23285;50.180;7.036;2023-03-01T13:34:53;13.47;;;11.97;;
37425;SDS011;23285;50.180;7.036;2023-03-01T13:37:44;17.67;;;13.23;;
37425;SDS011;23285;50.180;7.036;2023-03-01T13:43:38;17.80;;;12.27;;
37425;SDS011;23285;50.180;7.036;2023-03-01T13:46:27;15.37;;;12.10;;
37425;SDS011;23285;50.180;7.036;2023-03-01T13:49:14;14.63;;;11.90;;
37425;SDS011;23285;50.180;7.036;2023-03-01T13:52:03;16.63;;;12.27;;
37425;SDS011;23285;50.180;7.036;2023-03-01T13:54:49;15.47;;;11.90;;
37425;SDS011;23285;50.180;7.036;2023-03-01T13:57:36;15.47;;;12.47;;
37425;SDS011;23285;50.180;7.036;2023-03-01T14:00:27;14.00;;;10.07;;
37425;SDS011;23285;50.180;7.036;2023-03-01T14:03:19;14.90;;;10.47;;
37425;SDS011;23285;50.180;7.036;2023-03-01T14:06:07;16.00;;;10.43;;
37425;SDS011;23285;50.180;7.036;2023-03-01T14:09:00;15.37;;;10.80;;
37425;SDS011;23285;50.180;7.036;2023-03-01T14:12:10;14.70;;;10.40;;
37425;SDS011;23285;50.180;7.036;2023-03-01T14:15:01;10.97;;;9.23;;
37425;SDS011;23285;50.180;7.036;2023-03-01T14:18:00;11.10;;;9.27;;
37425;SDS011;23285;50.180;7.036;2023-03-01T14:20:49;14.63;;;9.87;;
37425;SDS011;23285;50.180;7.036;2023-03-01T14:23:38;12.43;;;10.87;;
37425;SDS011;23285;50.180;7.036;2023-03-01T14:26:26;17.20;;;11.47;;
37425;SDS011;23285;50.180;7.036;2023-03-01T14:29:25;16.13;;;11.63;;
37425;SDS011;23285;50.180;7.036;2023-03-01T14:32:12;15.03;;;10.77;;
37425;SDS011;23285;50.180;7.036;2023-03-01T14:35:18;12.80;;;11.30;;
37425;SDS011;23285;50.180;7.036;2023-03-01T14:38:19;13.50;;;11.13;;
37425;SDS011;23285;50.180;7.036;2023-03-01T14:41:07;12.97;;;10.47;;
37425;SDS011;23285;50.180;7.036;2023-03-01T14:43:55;12.30;;;10.47;;
37425;SDS011;23285;50.180;7.036;2023-03-01T14:46:45;11.97;;;10.33;;
37425;SDS011;23285;50.180;7.036;2023-03-01T14:49:32;13.10;;;9.43;;
37425;SDS011;23285;50.180;7.036;2023-03-01T14:52:23;11.77;;;10.50;;
37425;SDS011;23285;50.180;7.036;2023-03-01T14:55:18;15.13;;;9.70;;
37425;SDS011;23285;50.180;7.036;2023-03-01T14:58:08;10.50;;;9.17;;
37425;SDS011;23285;50.180;7.036;2023-03-01T15:00:58;13.87;;;9.60;;
37425;SDS011;23285;50.180;7.036;2023-03-01T15:03:47;11.07;;;8.93;;
37425;SDS011;23285;50.180;7.036;2023-03-01T15:06:34;10.90;;;8.90;;
37425;SDS011;23285;50.180;7.036;2023-03-01T15:09:22;11.70;;;9.00;;
37425;SDS011;23285;50.180;7.036;2023-03-01T15:12:32;9.40;;;8.33;;
37425;SDS011;23285;50.180;7.036;2023-03-01T15:15:32;13.07;;;8.63;;
37425;SDS011;23285;50.180;7.036;2023-03-01T15:18:21;13.27;;;8.80;;
37425;SDS011;23285;50.180;7.036;2023-03-01T15:21:09;12.37;;;8.00;;
37425;SDS011;23285;50.180;7.036;2023-03-01T15:24:05;13.20;;;8.03;;
37425;SDS011;23285;50.180;7.036;2023-03-01T15:26:58;8.13;;;7.03;;
37425;SDS011;23285;50.180;7.036;2023-03-01T15:29:51;9.23;;;7.17;;
37425;SDS011;23285;50.180;7.036;2023-03-01T15:32:38;8.50;;;6.90;;
37425;SDS011;23285;50.180;7.036;2023-03-01T15:35:38;9.43;;;7.17;;
37425;SDS011;23285;50.180;7.036;2023-03-01T15:38:34;10.50;;;6.90;;
37425;SDS011;23285;50.180;7.036;2023-03-01T15:41:23;7.77;;;6.53;;
37425;SDS011;23285;50.180;7.036;2023-03-01T15:44:16;9.83;;;6.30;;
37425;SDS011;23285;50.180;7.036;2023-03-01T15:47:05;7.50;;;6.20;;
37425;SDS011;23285;50.180;7.036;2023-03-01T15:50:11;7.80;;;6.17;;
37425;SDS011;23285;50.180;7.036;2023-03-01T15:53:04;7.63;;;6.37;;
37425;SDS011;23285;50.180;7.036;2023-03-01T15:55:55;7.23;;;5.70;;
37425;SDS011;23285;50.180;7.036;2023-03-01T15:58:41;7.37;;;6.10;;
37425;SDS011;23285;50.180;7.036;2023-03-01T16:01:29;6.73;;;5.40;;
37425;SDS011;23285;50.180;7.036;2023-03-01T16:04:18;8.47;;;5.43;;
37425;SDS011;23285;50.180;7.036;2023-03-01T16:07:08;7.37;;;5.43;;
37425;SDS011;23285;50.180;7.036;2023-03-01T16:09:55;10.40;;;5.40;;
37425;SDS011;23285;50.180;7.036;2023-03-01T16:12:41;7.10;;;5.90;;
37425;SDS011;23285;50.180;7.036;2023-03-01T16:15:28;7.30;;;5.27;;
37425;SDS011;23285;50.180;7.036;2023-03-01T16:18:17;22.50;;;15.67;;
37425;SDS011;23285;50.180;7.036;2023-03-01T16:21:04;54.80;;;28.30;;
37425;SDS011;23285;50.180;7.036;2023-03-01T16:23:51;58.93;;;31.07;;
37425;SDS011;23285;50.180;7.036;2023-03-01T16:26:37;50.23;;;28.63;;
37425;SDS011;23285;50.180;7.036;2023-03-01T16:29:24;55.77;;;33.00;;
37425;SDS011;23285;50.180;7.036;2023-03-01T16:32:10;31.40;;;18.87;;
37425;SDS011;23285;50.180;7.036;2023-03-01T16:34:58;12.80;;;10.83;;
37425;SDS011;23285;50.180;7.036;2023-03-01T16:37:45;19.53;;;14.83;;
37425;SDS011;23285;50.180;7.036;2023-03-01T16:40:31;24.37;;;19.93;;
37425;SDS011;23285;50.180;7.036;2023-03-01T16:43:18;19.03;;;15.67;;
37425;SDS011;23285;50.180;7.036;2023-03-01T16:46:09;15.63;;;12.33;;
37425;SDS011;23285;50.180;7.036;2023-03-01T16:48:56;22.93;;;18.57;;
37425;SDS011;23285;50.180;7.036;2023-03-01T16:51:43;19.63;;;14.73;;
37425;SDS011;23285;50.180;7.036;2023-03-01T16:54:29;8.47;;;7.63;;
37425;SDS011;23285;50.180;7.036;2023-03-01T16:57:16;7.43;;;5.93;;
37425;SDS011;23285;50.180;7.036;2023-03-01T17:00:02;8.50;;;6.50;;
37425;SDS011;23285;50.180;7.036;2023-03-01T17:02:51;6.50;;;5.53;;
37425;SDS011;23285;50.180;7.036;2023-03-01T17:05:39;12.87;;;11.50;;
37425;SDS011;23285;50.180;7.036;2023-03-01T17:08:27;17.43;;;14.73;;